sensor_id;sensor_type;location;lat;lon;timestamp;P1;durP1;ratioP1;P2;durP2;ratioP2
25535;SDS011;13431;51.352;6.412;2023-03-01T00:01:21;7.68;;;6.22;;
25535;SDS011;13431;51.352;6.412;2023-03-01T00:03:51;7.38;;;6.55;;
25535;SDS011;13431;51.352;6.412;2023-03-01T00:06:19;6.75;;;5.97;;
25535;SDS011;13431;51.352;6.412;2023-03-01T00:08:47;7.20;;;6.50;;
25535;SDS011;13431;51.352;6.412;2023-03-01T00:11:16;7.22;;;6.53;;
25535;SDS011;13431;51.352;6.412;2023-03-01T00:13:52;8.52;;;6.32;;
25535;SDS011;13431;51.352;6.412;2023-03-01T00:16:23;7.05;;;6.10;;
25535;SDS011;13431;51.352;6.412;2023-03-01T00:18:56;7.65;;;6.82;;
25535;SDS011;13431;51.352;6.412;2023-03-01T00:21:25;7.32;;;6.68;;
25535;SDS011;13431;51.352;6.412;2023-03-01T00:23:53;8.57;;;6.28;;
25535;SDS011;13431;51.352;6.412;2023-03-01T00:26:22;10.45;;;6.72;;
25535;SDS011;13431;51.352;6.412;2023-03-01T00:28:50;9.38;;;6.80;;
25535;SDS011;13431;51.352;6.412;2023-03-01T00:31:19;8.45;;;6.50;;
25535;SDS011;13431;51.352;6.412;2023-03-01T00:33:50;8.73;;;6.75;;
25535;SDS011;13431;51.352;6.412;2023-03-01T00:36:27;10.05;;;6.63;;
25535;SDS011;13431;51.352;6.412;2023-03-01T00:38:57;8.40;;;7.07;;
25535;SDS011;13431;51.352;6.412;2023-03-01T00:41:25;8.20;;;6.95;;
25535;SDS011;13431;51.352;6.412;2023-03-01T00:43:53;10.52;;;6.32;;
25535;SDS011;13431;51.352;6.412;2023-03-01T00:46:22;9.82;;;7.18;;
25535;SDS011;13431;51.352;6.412;2023-03-01T00:48:52;8.70;;;7.15;;
25535;SDS011;13431;51.352;6.412;2023-03-01T00:51:25;8.75;;;6.70;;
25535;SDS011;13431;51.352;6.412;2023-03-01T00:53:58;8.43;;;6.60;;
25535;SDS011;13431;51.352;6.412;2023-03-01T00:56:26;8.27;;;6.85;;
25535;SDS011;13431;51.352;6.412;2023-03-01T00:58:54;8.40;;;7.50;;
25535;SDS011;13431;51.352;6.412;2023-03-01T01:01:23;9.57;;;7.05;;
25535;SDS011;13431;51.352;6.412;2023-03-01T01:04:00;11.90;;;6.82;;
25535;SDS011;13431;51.352;6.412;2023-03-01T01:06:31;8.43;;;6.82;;
25535;SDS011;13431;51.352;6.412;2023-03-01T01:09:00;8.13;;;7.32;;
25535;SDS011;13431;51.352;6.412;2023-03-01T01:11:30;8.27;;;6.68;;
25535;SDS011;13431;51.352;6.412;2023-03-01T01:13:58;9.55;;;7.20;;
25535;SDS011;13431;51.352;6.412;2023-03-01T01:16:26;7.90;;;7.07;;
25535;SDS011;13431;51.352;6.412;2023-03-01T01:18:56;10.30;;;7.13;;
25535;SDS011;13431;51.352;6.412;2023-03-01T01:21:24;9.90;;;7.18;;
25535;SDS011;13431;51.352;6.412;2023-03-01T01:23:52;8.02;;;7.22;;
25535;SDS011;13431;51.352;6.412;2023-03-01T01:26:27;10.50;;;7.57;;
25535;SDS011;13431;51.352;6.412;2023-03-01T01:28:56;9.18;;;8.05;;
25535;SDS011;13431;51.352;6.412;2023-03-01T01:31:25;9.80;;;7.90;;
25535;SDS011;13431;51.352;6.412;2023-03-01T01:33:53;8.20;;;6.95;;
25535;SDS011;13431;51.352;6.412;2023-03-01T01:36:21;8.18;;;7.30;;
25535;SDS011;13431;51.352;6.412;2023-03-01T01:38:49;11.10;;;8.05;;
25535;SDS011;13431;51.352;6.412;2023-03-01T01:41:17;8.30;;;7.50;;
25535;SDS011;13431;51.352;6.412;2023-03-01T01:43:46;9.35;;;7.78;;
25535;SDS011;13431;51.352;6.412;2023-03-01T01:46:29;8.52;;;7.32;;
25535;SDS011;13431;51.352;6.412;2023-03-01T01:51:36;12.10;;;7.93;;
25535;SDS011;13431;51.352;6.412;2023-03-01T01:56:40;10.48;;;7.53;;
25535;SDS011;13431;51.352;6.412;2023-03-01T01:59:10;9.82;;;7.53;;
25535;SDS011;13431;51.352;6.412;2023-03-01T02:01:39;8.57;;;7.78;;
25535;SDS011;13431;51.352;6.412;2023-03-01T02:04:06;9.63;;;8.02;;
25535;SDS011;13431;51.352;6.412;2023-03-01T02:06:34;11.80;;;9.25;;
25535;SDS011;13431;51.352;6.412;2023-03-01T02:09:11;8.73;;;7.65;;
25535;SDS011;13431;51.352;6.412;2023-03-01T02:11:41;9.13;;;7.68;;
25535;SDS011;13431;51.352;6.412;2023-03-01T02:14:10;11.07;;;8.40;;
25535;SDS011;13431;51.352;6.412;2023-03-01T02:16:38;10.07;;;7.90;;
25535;SDS011;13431;51.352;6.412;2023-03-01T02:19:05;10.68;;;8.55;;
25535;SDS011;13431;51.352;6.412;2023-03-01T02:21:38;8.95;;;8.00;;
25535;SDS011;13431;51.352;6.412;2023-03-01T02:27:01;8.80;;;7.93;;
25535;SDS011;13431;51.352;6.412;2023-03-01T02:29:29;10.00;;;7.97;;
25535;SDS011;13431;51.352;6.412;2023-03-01T02:31:57;8.75;;;7.72;;
25535;SDS011;13431;51.352;6.412;2023-03-01T02:34:28;10.50;;;8.20;;
25535;SDS011;13431;51.352;6.412;2023-03-01T02:37:07;10.40;;;8.35;;
25535;SDS011;13431;51.352;6.412;2023-03-01T02:39:40;9.25;;;8.20;;
25535;SDS011;13431;51.352;6.412;2023-03-01T02:42:15;9.50;;;7.63;;
25535;SDS011;13431;51.352;6.412;2023-03-01T02:44:48;8.63;;;7.72;;
25535;SDS011;13431;51.352;6.412;2023-03-01T02:47:16;12.65;;;8.88;;
25535;SDS011;13431;51.352;6.412;2023-03-01T02:49:43;8.57;;;7.63;;
25535;SDS011;13431;51.352;6.412;2023-03-01T02:57:25;12.50;;;8.68;;
25535;SDS011;13431;51.352;6.412;2023-03-01T02:59:55;8.38;;;7.20;;
25535;SDS011;13431;51.352;6.412;2023-03-01T03:02:25;9.85;;;8.57;;
25535;SDS011;13431;51.352;6.412;2023-03-01T03:07:41;9.63;;;7.95;;
25535;SDS011;13431;51.352;6.412;2023-03-01T03:10:18;10.15;;;7.60;;
25535;SDS011;13431;51.352;6.412;2023-03-01T03:12:51;8.38;;;7.10;;
25535;SDS011;13431;51.352;6.412;2023-03-01T03:15:21;9.43;;;7.05;;
25535;SDS011;13431;51.352;6.412;2023-03-01T03:17:49;9.27;;;7.82;;
25535;SDS011;13431;51.352;6.412;2023-03-01T03:20:17;8.27;;;7.43;;
25535;SDS011;13431;51.352;6.412;2023-03-01T03:22:47;9.73;;;8.32;;
25535;SDS011;13431;51.352;6.412;2023-03-01T03:25:16;12.15;;;7.65;;
25535;SDS011;13431;51.352;6.412;2023-03-01T03:27:45;8.68;;;7.60;;
25535;SDS011;13431;51.352;6.412;2023-03-01T03:30:14;10.27;;;8.68;;
25535;SDS011;13431;51.352;6.412;2023-03-01T03:32:45;12.07;;;8.20;;
25535;SDS011;13431;51.352;6.412;2023-03-01T03:35:38;10.85;;;8.43;;
25535;SDS011;13431;51.352;6.412;2023-03-01T03:38:15;10.25;;;7.78;;
25535;SDS011;13431;51.352;6.412;2023-03-01T03:40:46;10.07;;;8.50;;
25535;SDS011;13431;51.352;6.412;2023-03-01T03:43:19;9.65;;;8.18;;
25535;SDS011;13431;51.352;6.412;2023-03-01T03:45:49;9.45;;;8.07;;
25535;SDS011;13431;51.352;6.412;2023-03-01T03:48:17;10.82;;;8.18;;
25535;SDS011;13431;51.352;6.412;2023-03-01T03:50:49;10.65;;;8.43;;
25535;SDS011;13431;51.352;6.412;2023-03-01T03:53:18;9.38;;;8.00;;
25535;SDS011;13431;51.352;6.412;2023-03-01T03:55:46;9.45;;;8.20;;
25535;SDS011;13431;51.352;6.412;2023-03-01T03:58:16;9.93;;;8.60;;
25535;SDS011;13431;51.352;6.412;2023-03-01T04:00:51;13.63;;;8.32;;
25535;SDS011;13431;51.352;6.412;2023-03-01T04:03:22;10.65;;;9.10;;
25535;SDS011;13431;51.352;6.412;2023-03-01T04:05:51;11.15;;;8.35;;
25535;SDS011;13431;51.352;6.412;2023-03-01T04:08:20;9.82;;;8.85;;
25535;SDS011;13431;51.352;6.412;2023-03-01T04:10:49;9.38;;;8.48;;
25535;SDS011;13431;51.352;6.412;2023-03-01T04:13:20;10.05;;;9.05;;
25535;SDS011;13431;51.352;6.412;2023-03-01T04:15:49;10.70;;;9.00;;
25535;SDS011;13431;51.352;6.412;2023-03-01T04:18:18;10.93;;;9.25;;
25535;SDS011;13431;51.352;6.412;2023-03-01T04:20:50;10.85;;;8.35;;
25535;SDS011;13431;51.352;6.412;2023-03-01T04:23:19;9.88;;;7.53;;
25535;SDS011;13431;51.352;6.412;2023-03-01T04:28:30;10.60;;;8.50;;
25535;SDS011;13431;51.352;6.412;2023-03-01T04:31:19;10.73;;;8.88;;
25535;SDS011;13431;51.352;6.412;2023-03-01T04:33:49;9.73;;;8.15;;
25535;SDS011;13431;51.352;6.412;2023-03-01T04:36:22;10.13;;;8.82;;
25535;SDS011;13431;51.352;6.412;2023-03-01T04:38:51;9.90;;;8.55;;
25535;SDS011;13431;51.352;6.412;2023-03-01T04:41:20;9.38;;;8.30;;
25535;SDS011;13431;51.352;6.412;2023-03-01T04:43:50;12.23;;;8.88;;
25535;SDS011;13431;51.352;6.412;2023-03-01T04:46:18;10.55;;;8.02;;
25535;SDS011;13431;51.352;6.412;2023-03-01T04:48:47;9.02;;;8.13;;
25535;SDS011;13431;51.352;6.412;2023-03-01T04:51:15;10.32;;;9.32;;
25535;SDS011;13431;51.352;6.412;2023-03-01T04:53:43;9.98;;;8.95;;
25535;SDS011;13431;51.352;6.412;2023-03-01T04:56:11;8.85;;;7.95;;
25535;SDS011;13431;51.352;6.412;2023-03-01T04:58:41;11.35;;;8.65;;
25535;SDS011;13431;51.352;6.412;2023-03-01T05:01:12;11.85;;;8.80;;
25535;SDS011;13431;51.352;6.412;2023-03-01T05:03:44;11.68;;;8.77;;
25535;SDS011;13431;51.352;6.412;2023-03-01T05:06:14;9.50;;;8.15;;
25535;SDS011;13431;51.352;6.412;2023-03-01T05:08:42;11.43;;;8.90;;
25535;SDS011;13431;51.352;6.412;2023-03-01T05:11:10;10.82;;;8.80;;
25535;SDS011;13431;51.352;6.412;2023-03-01T05:13:39;10.15;;;8.27;;
25535;SDS011;13431;51.352;6.412;2023-03-01T05:16:07;9.68;;;8.68;;
25535;SDS011;13431;51.352;6.412;2023-03-01T05:18:38;11.68;;;8.48;;
25535;SDS011;13431;51.352;6.412;2023-03-01T05:21:07;11.45;;;9.35;;
25535;SDS011;13431;51.352;6.412;2023-03-01T05:23:37;13.13;;;10.18;;
25535;SDS011;13431;51.352;6.412;2023-03-01T05:26:05;9.98;;;8.85;;
25535;SDS011;13431;51.352;6.412;2023-03-01T05:28:48;10.68;;;7.93;;
25535;SDS011;13431;51.352;6.412;2023-03-01T05:31:15;10.18;;;8.93;;
25535;SDS011;13431;51.352;6.412;2023-03-01T05:33:42;12.15;;;9.23;;
25535;SDS011;13431;51.352;6.412;2023-03-01T05:36:10;10.32;;;8.85;;
25535;SDS011;13431;51.352;6.412;2023-03-01T05:38:37;11.73;;;9.07;;
25535;SDS011;13431;51.352;6.412;2023-03-01T05:41:04;11.38;;;8.55;;
25535;SDS011;13431;51.352;6.412;2023-03-01T05:43:40;15.55;;;9.23;;
25535;SDS011;13431;51.352;6.412;2023-03-01T05:46:10;10.98;;;9.55;;
25535;SDS011;13431;51.352;6.412;2023-03-01T05:48:40;10.50;;;9.40;;
25535;SDS011;13431;51.352;6.412;2023-03-01T05:51:07;10.30;;;8.82;;
25535;SDS011;13431;51.352;6.412;2023-03-01T05:53:35;9.98;;;8.82;;
25535;SDS011;13431;51.352;6.412;2023-03-01T05:56:03;11.15;;;9.50;;
25535;SDS011;13431;51.352;6.412;2023-03-01T05:58:31;11.20;;;9.20;;
25535;SDS011;13431;51.352;6.412;2023-03-01T06:00:58;10.23;;;8.30;;
25535;SDS011;13431;51.352;6.412;2023-03-01T06:03:26;12.52;;;9.55;;
25535;SDS011;13431;51.352;6.412;2023-03-01T06:05:56;13.48;;;9.98;;
25535;SDS011;13431;51.352;6.412;2023-03-01T06:08:24;12.00;;;9.77;;
25535;SDS011;13431;51.352;6.412;2023-03-01T06:10:54;11.77;;;9.27;;
25535;SDS011;13431;51.352;6.412;2023-03-01T06:13:21;11.02;;;9.05;;
25535;SDS011;13431;51.352;6.412;2023-03-01T06:15:50;11.77;;;9.63;;
25535;SDS011;13431;51.352;6.412;2023-03-01T06:18:18;12.45;;;9.27;;
25535;SDS011;13431;51.352;6.412;2023-03-01T06:20:52;13.07;;;9.20;;
25535;SDS011;13431;51.352;6.412;2023-03-01T06:23:20;13.45;;;9.30;;
25535;SDS011;13431;51.352;6.412;2023-03-01T06:25:49;15.40;;;9.65;;
25535;SDS011;13431;51.352;6.412;2023-03-01T06:28:16;13.63;;;9.82;;
25535;SDS011;13431;51.352;6.412;2023-03-01T06:30:43;12.32;;;10.15;;
25535;SDS011;13431;51.352;6.412;2023-03-01T06:33:11;12.68;;;10.18;;
25535;SDS011;13431;51.352;6.412;2023-03-01T06:35:38;11.90;;;9.38;;
25535;SDS011;13431;51.352;6.412;2023-03-01T06:38:08;14.93;;;9.73;;
25535;SDS011;13431;51.352;6.412;2023-03-01T06:40:36;13.80;;;9.82;;
25535;SDS011;13431;51.352;6.412;2023-03-01T06:43:03;11.40;;;9.82;;
25535;SDS011;13431;51.352;6.412;2023-03-01T06:45:31;10.68;;;9.32;;
25535;SDS011;13431;51.352;6.412;2023-03-01T06:48:05;12.52;;;9.90;;
25535;SDS011;13431;51.352;6.412;2023-03-01T06:50:34;13.60;;;10.02;;
25535;SDS011;13431;51.352;6.412;2023-03-01T06:53:02;10.38;;;9.18;;
25535;SDS011;13431;51.352;6.412;2023-03-01T06:55:29;10.27;;;8.90;;
25535;SDS011;13431;51.352;6.412;2023-03-01T06:57:58;12.10;;;8.52;;
25535;SDS011;13431;51.352;6.412;2023-03-01T07:00:26;13.00;;;9.43;;
25535;SDS011;13431;51.352;6.412;2023-03-01T07:02:54;10.32;;;9.23;;
25535;SDS011;13431;51.352;6.412;2023-03-01T07:05:26;10.50;;;9.07;;
25535;SDS011;13431;51.352;6.412;2023-03-01T07:07:53;13.10;;;8.73;;
25535;SDS011;13431;51.352;6.412;2023-03-01T07:10:21;11.68;;;9.02;;
25535;SDS011;13431;51.352;6.412;2023-03-01T07:12:49;10.02;;;8.80;;
25535;SDS011;13431;51.352;6.412;2023-03-01T07:15:17;11.23;;;8.68;;
25535;SDS011;13431;51.352;6.412;2023-03-01T07:17:44;11.23;;;8.85;;
25535;SDS011;13431;51.352;6.412;2023-03-01T07:20:14;13.40;;;8.95;;
25535;SDS011;13431;51.352;6.412;2023-03-01T07:22:41;10.15;;;7.88;;
25535;SDS011;13431;51.352;6.412;2023-03-01T07:25:09;9.52;;;8.10;;
25535;SDS011;13431;51.352;6.412;2023-03-01T07:27:37;10.50;;;7.38;;
25535;SDS011;13431;51.352;6.412;2023-03-01T07:30:05;13.25;;;7.93;;
25535;SDS011;13431;51.352;6.412;2023-03-01T07:32:33;11.20;;;7.70;;
25535;SDS011;13431;51.352;6.412;2023-03-01T07:35:00;11.40;;;9.20;;
25535;SDS011;13431;51.352;6.412;2023-03-01T07:37:28;8.63;;;7.15;;
25535;SDS011;13431;51.352;6.412;2023-03-01T07:39:55;11.57;;;8.02;;
25535;SDS011;13431;51.352;6.412;2023-03-01T07:42:22;11.32;;;8.32;;
25535;SDS011;13431;51.352;6.412;2023-03-01T07:44:49;10.85;;;7.43;;
25535;SDS011;13431;51.352;6.412;2023-03-01T07:47:17;9.23;;;7.45;;
25535;SDS011;13431;51.352;6.412;2023-03-01T07:49:44;10.13;;;7.10;;
25535;SDS011;13431;51.352;6.412;2023-03-01T07:52:11;8.57;;;7.30;;
25535;SDS011;13431;51.352;6.412;2023-03-01T07:54:39;9.38;;;7.78;;
25535;SDS011;13431;51.352;6.412;2023-03-01T07:57:09;10.68;;;7.65;;
25535;SDS011;13431;51.352;6.412;2023-03-01T07:59:37;8.63;;;7.70;;
25535;SDS011;13431;51.352;6.412;2023-03-01T08:02:05;8.45;;;7.60;;
25535;SDS011;13431;51.352;6.412;2023-03-01T08:04:32;9.93;;;7.85;;
25535;SDS011;13431;51.352;6.412;2023-03-01T08:07:00;8.65;;;7.32;;
25535;SDS011;13431;51.352;6.412;2023-03-01T08:09:27;8.43;;;7.63;;
25535;SDS011;13431;51.352;6.412;2023-03-01T08:11:56;9.65;;;7.78;;
25535;SDS011;13431;51.352;6.412;2023-03-01T08:14:26;8.52;;;6.65;;
25535;SDS011;13431;51.352;6.412;2023-03-01T08:16:53;9.98;;;8.10;;
25535;SDS011;13431;51.352;6.412;2023-03-01T08:19:21;10.85;;;8.23;;
25535;SDS011;13431;51.352;6.412;2023-03-01T08:21:49;10.20;;;7.78;;
25535;SDS011;13431;51.352;6.412;2023-03-01T08:24:16;10.30;;;7.50;;
25535;SDS011;13431;51.352;6.412;2023-03-01T08:26:43;8.75;;;7.28;;
25535;SDS011;13431;51.352;6.412;2023-03-01T08:29:11;9.52;;;8.10;;
25535;SDS011;13431;51.352;6.412;2023-03-01T08:31:39;7.68;;;6.90;;
25535;SDS011;13431;51.352;6.412;2023-03-01T08:34:08;8.70;;;7.10;;
25535;SDS011;13431;51.352;6.412;2023-03-01T08:36:40;11.43;;;7.63;;
25535;SDS011;13431;51.352;6.412;2023-03-01T08:39:10;16.02;;;8.35;;
25535;SDS011;13431;51.352;6.412;2023-03-01T08:41:39;7.28;;;6.30;;
25535;SDS011;13431;51.352;6.412;2023-03-01T08:44:07;10.98;;;7.55;;
25535;SDS011;13431;51.352;6.412;2023-03-01T08:46:37;8.98;;;8.07;;
25535;SDS011;13431;51.352;6.412;2023-03-01T08:49:06;9.25;;;7.05;;
25535;SDS011;13431;51.352;6.412;2023-03-01T08:51:35;7.85;;;7.05;;
25535;SDS011;13431;51.352;6.412;2023-03-01T08:54:07;10.95;;;6.93;;
25535;SDS011;13431;51.352;6.412;2023-03-01T08:56:41;8.57;;;7.18;;
25535;SDS011;13431;51.352;6.412;2023-03-01T08:59:10;10.00;;;7.53;;
25535;SDS011;13431;51.352;6.412;2023-03-01T09:01:38;9.77;;;6.90;;
25535;SDS011;13431;51.352;6.412;2023-03-01T09:04:06;7.72;;;6.93;;
25535;SDS011;13431;51.352;6.412;2023-03-01T09:06:34;8.48;;;6.90;;
25535;SDS011;13431;51.352;6.412;2023-03-01T09:09:02;7.88;;;7.07;;
25535;SDS011;13431;51.352;6.412;2023-03-01T09:11:30;9.52;;;7.75;;
25535;SDS011;13431;51.352;6.412;2023-03-01T09:13:57;9.15;;;7.35;;
25535;SDS011;13431;51.352;6.412;2023-03-01T09:16:25;8.35;;;7.35;;
25535;SDS011;13431;51.352;6.412;2023-03-01T09:18:53;8.90;;;6.60;;
25535;SDS011;13431;51.352;6.412;2023-03-01T09:21:22;8.63;;;7.28;;
25535;SDS011;13431;51.352;6.412;2023-03-01T09:24:06;7.70;;;6.97;;
25535;SDS011;13431;51.352;6.412;2023-03-01T09:26:41;8.10;;;7.03;;
25535;SDS011;13431;51.352;6.412;2023-03-01T09:29:09;7.95;;;7.15;;
25535;SDS011;13431;51.352;6.412;2023-03-01T09:31:37;9.25;;;7.18;;
25535;SDS011;13431;51.352;6.412;2023-03-01T09:34:04;11.88;;;7.25;;
25535;SDS011;13431;51.352;6.412;2023-03-01T09:36:32;8.23;;;7.07;;
25535;SDS011;13431;51.352;6.412;2023-03-01T09:39:00;9.85;;;8.00;;
25535;SDS011;13431;51.352;6.412;2023-03-01T09:41:42;9.57;;;7.95;;
25535;SDS011;13431;51.352;6.412;2023-03-01T09:44:26;11.80;;;7.65;;
25535;SDS011;13431;51.352;6.412;2023-03-01T09:47:16;9.13;;;7.63;;
25535;SDS011;13431;51.352;6.412;2023-03-01T09:49:44;8.25;;;7.40;;
25535;SDS011;13431;51.352;6.412;2023-03-01T09:52:23;8.07;;;7.28;;
25535;SDS011;13431;51.352;6.412;2023-03-01T09:54:58;10.88;;;7.72;;
25535;SDS011;13431;51.352;6.412;2023-03-01T10:02:48;10.40;;;8.00;;
25535;SDS011;13431;51.352;6.412;2023-03-01T10:05:34;12.07;;;7.68;;
25535;SDS011;13431;51.352;6.412;2023-03-01T10:08:13;8.63;;;7.47;;
25535;SDS011;13431;51.352;6.412;2023-03-01T10:10:56;8.55;;;7.75;;
25535;SDS011;13431;51.352;6.412;2023-03-01T10:13:27;9.65;;;8.27;;
25535;SDS011;13431;51.352;6.412;2023-03-01T10:19:04;8.93;;;7.97;;
25535;SDS011;13431;51.352;6.412;2023-03-01T10:21:34;12.05;;;8.30;;
25535;SDS011;13431;51.352;6.412;2023-03-01T10:24:10;11.27;;;7.65;;
25535;SDS011;13431;51.352;6.412;2023-03-01T10:26:55;11.68;;;8.10;;
25535;SDS011;13431;51.352;6.412;2023-03-01T10:29:28;10.15;;;8.38;;
25535;SDS011;13431;51.352;6.412;2023-03-01T10:32:11;9.23;;;8.32;;
25535;SDS011;13431;51.352;6.412;2023-03-01T10:34:38;9.50;;;8.50;;
25535;SDS011;13431;51.352;6.412;2023-03-01T10:37:11;9.07;;;8.13;;
25535;SDS011;13431;51.352;6.412;2023-03-01T10:39:54;9.40;;;7.65;;
25535;SDS011;13431;51.352;6.412;2023-03-01T10:42:31;9.65;;;8.68;;
25535;SDS011;13431;51.352;6.412;2023-03-01T10:50:31;10.43;;;8.82;;
25535;SDS011;13431;51.352;6.412;2023-03-01T10:53:02;9.35;;;7.70;;
25535;SDS011;13431;51.352;6.412;2023-03-01T10:55:34;8.30;;;7.50;;
25535;SDS011;13431;51.352;6.412;2023-03-01T11:00:45;9.43;;;8.13;;
25535;SDS011;13431;51.352;6.412;2023-03-01T11:03:20;9.57;;;8.25;;
25535;SDS011;13431;51.352;6.412;2023-03-01T11:05:54;10.27;;;8.57;;
25535;SDS011;13431;51.352;6.412;2023-03-01T11:11:05;10.98;;;8.10;;
25535;SDS011;13431;51.352;6.412;2023-03-01T11:13:36;9.18;;;7.70;;
25535;SDS011;13431;51.352;6.412;2023-03-01T11:16:15;10.50;;;8.50;;
25535;SDS011;13431;51.352;6.412;2023-03-01T11:18:59;9.43;;;8.43;;
25535;SDS011;13431;51.352;6.412;2023-03-01T11:21:36;8.82;;;7.65;;
25535;SDS011;13431;51.352;6.412;2023-03-01T11:24:20;14.90;;;8.02;;
25535;SDS011;13431;51.352;6.412;2023-03-01T11:26:59;9.27;;;8.05;;
25535;SDS011;13431;51.352;6.412;2023-03-01T11:29:38;9.75;;;8.07;;
25535;SDS011;13431;51.352;6.412;2023-03-01T11:32:15;9.50;;;7.95;;
25535;SDS011;13431;51.352;6.412;2023-03-01T11:37:26;10.48;;;8.32;;
25535;SDS011;13431;51.352;6.412;2023-03-01T11:40:26;10.07;;;7.63;;
25535;SDS011;13431;51.352;6.412;2023-03-01T11:45:53;10.30;;;8.18;;
25535;SDS011;13431;51.352;6.412;2023-03-01T11:48:37;7.80;;;6.72;;
25535;SDS011;13431;51.352;6.412;2023-03-01T11:51:32;8.35;;;7.15;;
25535;SDS011;13431;51.352;6.412;2023-03-01T11:54:14;8.77;;;7.10;;
25535;SDS011;13431;51.352;6.412;2023-03-01T12:04:48;8.80;;;7.18;;
25535;SDS011;13431;51.352;6.412;2023-03-01T12:08:07;9.88;;;7.80;;
25535;SDS011;13431;51.352;6.412;2023-03-01T12:22:00;8.43;;;6.32;;
25535;SDS011;13431;51.352;6.412;2023-03-01T12:24:35;10.50;;;6.32;;
25535;SDS011;13431;51.352;6.412;2023-03-01T12:44:20;8.40;;;6.55;;
25535;SDS011;13431;51.352;6.412;2023-03-01T12:50:01;8.38;;;5.80;;
25535;SDS011;13431;51.352;6.412;2023-03-01T12:52:42;7.55;;;5.72;;
25535;SDS011;13431;51.352;6.412;2023-03-01T12:58:17;9.63;;;6.05;;
25535;SDS011;13431;51.352;6.412;2023-03-01T13:04:15;7.05;;;6.32;;
25535;SDS011;13431;51.352;6.412;2023-03-01T13:09:55;8.25;;;6.43;;
25535;SDS011;13431;51.352;6.412;2023-03-01T13:15:36;8.00;;;4.60;;
25535;SDS011;13431;51.352;6.412;2023-03-01T13:31:05;8.55;;;6.25;;
25535;SDS011;13431;51.352;6.412;2023-03-01T13:33:44;9.40;;;6.47;;
25535;SDS011;13431;51.352;6.412;2023-03-01T13:36:45;8.32;;;6.13;;
25535;SDS011;13431;51.352;6.412;2023-03-01T13:39:04;7.93;;;6.07;;
25535;SDS011;13431;51.352;6.412;2023-03-01T13:41:54;9.10;;;6.13;;
25535;SDS011;13431;51.352;6.412;2023-03-01T13:49:40;6.47;;;5.28;;
25535;SDS011;13431;51.352;6.412;2023-03-01T13:52:32;8.75;;;5.68;;
25535;SDS011;13431;51.352;6.412;2023-03-01T13:55:20;6.72;;;5.63;;
25535;SDS011;13431;51.352;6.412;2023-03-01T13:57:53;8.88;;;5.65;;
25535;SDS011;13431;51.352;6.412;2023-03-01T14:00:29;7.90;;;5.85;;
25535;SDS011;13431;51.352;6.412;2023-03-01T14:08:44;8.05;;;6.00;;
25535;SDS011;13431;51.352;6.412;2023-03-01T14:14:19;6.88;;;5.70;;
25535;SDS011;13431;51.352;6.412;2023-03-01T14:20:19;12.32;;;6.30;;
25535;SDS011;13431;51.352;6.412;2023-03-01T14:22:49;8.20;;;6.40;;
25535;SDS011;13431;51.352;6.412;2023-03-01T14:27:55;7.15;;;6.18;;
25535;SDS011;13431;51.352;6.412;2023-03-01T14:33:03;7.22;;;5.90;;
25535;SDS011;13431;51.352;6.412;2023-03-01T14:35:34;7.55;;;5.93;;
25535;SDS011;13431;51.352;6.412;2023-03-01T14:38:02;6.50;;;5.68;;
25535;SDS011;13431;51.352;6.412;2023-03-01T14:40:32;8.23;;;6.13;;
25535;SDS011;13431;51.352;6.412;2023-03-01T14:43:02;7.20;;;6.32;;
25535;SDS011;13431;51.352;6.412;2023-03-01T14:45:37;7.40;;;6.60;;
25535;SDS011;13431;51.352;6.412;2023-03-01T14:48:05;8.45;;;6.05;;
25535;SDS011;13431;51.352;6.412;2023-03-01T14:50:34;7.55;;;6.00;;
25535;SDS011;13431;51.352;6.412;2023-03-01T14:53:06;11.57;;;7.15;;
25535;SDS011;13431;51.352;6.412;2023-03-01T14:55:42;9.02;;;7.15;;
25535;SDS011;13431;51.352;6.412;2023-03-01T14:58:14;10.35;;;7.10;;
25535;SDS011;13431;51.352;6.412;2023-03-01T15:00:50;7.22;;;6.50;;
25535;SDS011;13431;51.352;6.412;2023-03-01T15:03:41;6.47;;;5.75;;
25535;SDS011;13431;51.352;6.412;2023-03-01T15:06:11;9.32;;;6.22;;
25535;SDS011;13431;51.352;6.412;2023-03-01T15:08:42;6.10;;;5.47;;
25535;SDS011;13431;51.352;6.412;2023-03-01T15:11:17;8.02;;;6.38;;
25535;SDS011;13431;51.352;6.412;2023-03-01T15:13:50;8.27;;;5.43;;
25535;SDS011;13431;51.352;6.412;2023-03-01T15:19:06;7.05;;;5.85;;
25535;SDS011;13431;51.352;6.412;2023-03-01T15:21:37;8.13;;;6.93;;
25535;SDS011;13431;51.352;6.412;2023-03-01T15:26:34;7.32;;;5.85;;
25535;SDS011;13431;51.352;6.412;2023-03-01T15:29:10;7.13;;;5.53;;
25535;SDS011;13431;51.352;6.412;2023-03-01T15:31:52;10.70;;;6.13;;
25535;SDS011;13431;51.352;6.412;2023-03-01T15:34:31;7.95;;;5.57;;
25535;SDS011;13431;51.352;6.412;2023-03-01T15:37:01;7.60;;;5.75;;
25535;SDS011;13431;51.352;6.412;2023-03-01T15:39:33;13.55;;;7.00;;
25535;SDS011;13431;51.352;6.412;2023-03-01T15:45:08;13.20;;;8.82;;
25535;SDS011;13431;51.352;6.412;2023-03-01T15:47:47;12.90;;;8.18;;
25535;SDS011;13431;51.352;6.412;2023-03-01T15:50:24;5.82;;;5.00;;
25535;SDS011;13431;51.352;6.412;2023-03-01T15:52:54;8.20;;;7.00;;
25535;SDS011;13431;51.352;6.412;2023-03-01T15:55:26;10.45;;;7.57;;
25535;SDS011;13431;51.352;6.412;2023-03-01T15:58:06;11.52;;;7.47;;
25535;SDS011;13431;51.352;6.412;2023-03-01T16:00:39;8.35;;;6.20;;
25535;SDS011;13431;51.352;6.412;2023-03-01T16:03:23;11.25;;;7.07;;
25535;SDS011;13431;51.352;6.412;2023-03-01T16:05:51;9.48;;;7.38;;
25535;SDS011;13431;51.352;6.412;2023-03-01T16:08:18;8.48;;;7.18;;
25535;SDS011;13431;51.352;6.412;2023-03-01T16:10:46;8.18;;;6.35;;
25535;SDS011;13431;51.352;6.412;2023-03-01T16:13:16;7.45;;;6.10;;
25535;SDS011;13431;51.352;6.412;2023-03-01T16:15:44;7.88;;;6.65;;
25535;SDS011;13431;51.352;6.412;2023-03-01T16:18:11;9.55;;;6.68;;
25535;SDS011;13431;51.352;6.412;2023-03-01T16:20:39;9.05;;;6.25;;
25535;SDS011;13431;51.352;6.412;2023-03-01T16:23:07;8.02;;;6.57;;
25535;SDS011;13431;51.352;6.412;2023-03-01T16:25:36;7.72;;;6.18;;
25535;SDS011;13431;51.352;6.412;2023-03-01T16:28:04;9.80;;;6.47;;
25535;SDS011;13431;51.352;6.412;2023-03-01T16:30:36;9.88;;;6.45;;
25535;SDS011;13431;51.352;6.412;2023-03-01T16:33:04;7.20;;;6.10;;
25535;SDS011;13431;51.352;6.412;2023-03-01T16:35:50;7.82;;;5.85;;
25535;SDS011;13431;51.352;6.412;2023-03-01T16:38:17;6.60;;;5.60;;
25535;SDS011;13431;51.352;6.412;2023-03-01T16:40:46;9.02;;;6.45;;
25535;SDS011;13431;51.352;6.412;2023-03-01T16:43:15;6.70;;;6.03;;
25535;SDS011;13431;51.352;6.412;2023-03-01T16:45:43;7.22;;;6.13;;
25535;SDS011;13431;51.352;6.412;2023-03-01T16:48:11;7.93;;;6.18;;
25535;SDS011;13431;51.352;6.412;2023-03-01T16:50:39;7.60;;;6.55;;
25535;SDS011;13431;51.352;6.412;2023-03-01T16:53:06;7.97;;;6.22;;
25535;SDS011;13431;51.352;6.412;2023-03-01T16:55:34;9.55;;;6.78;;
25535;SDS011;13431;51.352;6.412;2023-03-01T16:58:01;10.20;;;6.50;;
25535;SDS011;13431;51.352;6.412;2023-03-01T17:00:29;11.32;;;6.20;;
25535;SDS011;13431;51.352;6.412;2023-03-01T17:02:56;9.00;;;6.68;;
25535;SDS011;13431;51.352;6.412;2023-03-01T17:05:24;9.45;;;6.30;;
25535;SDS011;13431;51.352;6.412;2023-03-01T17:07:52;9.20;;;6.50;;
25535;SDS011;13431;51.352;6.412;2023-03-01T17:10:22;8.38;;;6.82;;
25535;SDS011;13431;51.352;6.412;2023-03-01T17:12:49;9.70;;;7.03;;
25535;SDS011;13431;51.352;6.412;2023-03-01T17:15:17;10.07;;;6.40;;
25535;SDS011;13431;51.352;6.412;2023-03-01T17:17:44;9.30;;;6.78;;
25535;SDS011;13431;51.352;6.412;2023-03-01T17:20:13;8.82;;;5.75;;
25535;SDS011;13431;51.352;6.412;2023-03-01T17:22:40;9.90;;;6.68;;
25535;SDS011;13431;51.352;6.412;2023-03-01T17:25:08;11.35;;;7.05;;
25535;SDS011;13431;51.352;6.412;2023-03-01T17:27:37;8.68;;;6.80;;